Time;durP1;ratioP1;P1;durP2;ratioP2;P2;SDS_P1;SDS_P2;PMS_P1;PMS_P2;Temp;Humidity;BMP_temperature;BMP_pressure;BME280_temperature;BME280_humidity;BME280_pressure;Samples;Min_cycle;Max_cycle;Signal;HPM_P1;HPM_P2
2021/04/10 00:00:09;;;;;;;5.60;4.25;;;;;;;0.67;60.41;98544.61;1673862;86;21161;-61
2021/04/10 00:02:39;;;;;;;6.22;4.22;;;;;;;0.59;60.80;98541.55;1674026;85;21173;-60
2021/04/10 00:05:09;;;;;;;6.17;5.15;;;;;;;0.56;61.39;98544.25;1673961;86;21229;-61
2021/04/10 00:07:38;;;;;;;8.58;4.40;;;;;;;0.46;61.87;98547.67;1673987;86;21190;-62
2021/04/10 00:10:08;;;;;;;5.83;4.10;;;;;;;0.39;61.21;98543.25;1674023;86;21221;-62
2021/04/10 00:12:37;;;;;;;4.15;3.10;;;;;;;0.39;60.17;98545.80;1673807;86;21159;-61
2021/04/10 00:15:10;;;;;;;4.83;2.67;;;;;;;0.40;60.24;98539.80;1673941;86;21624;-61
2021/04/10 00:17:38;;;;;;;7.78;3.37;;;;;;;0.41;59.66;98535.09;1673802;86;21657;-61
2021/04/10 00:20:12;;;;;;;6.90;4.08;;;;;;;0.40;59.56;98535.97;1673970;86;21165;-60
2021/04/10 00:22:40;;;;;;;6.12;4.40;;;;;;;0.40;59.31;98533.42;1673830;86;21168;-62
2021/04/10 00:25:31;;;;;;;9.98;4.33;;;;;;;0.38;59.85;98532.67;1673816;86;21676;-63
2021/04/10 00:28:00;;;;;;;7.00;3.75;;;;;;;0.33;61.95;98534.58;1641002;87;21332;-62
2021/04/10 00:30:29;;;;;;;6.90;3.80;;;;;;;0.15;62.66;98522.61;1640518;87;21256;-60
2021/04/10 00:32:57;;;;;;;6.33;4.55;;;;;;;0.15;62.66;98522.61;1640986;87;21203;-61
2021/04/10 00:35:28;;;;;;;7.10;4.25;;;;;;;0.16;62.90;98533.18;1640939;87;21214;-61
2021/04/10 00:37:57;;;;;;;7.03;2.95;;;;;;;0.12;63.48;98528.30;1641098;87;21179;-63
2021/04/10 00:40:26;;;;;;;7.00;4.53;;;;;;;0.07;63.24;98522.09;1641225;87;21328;-60
2021/04/10 00:42:54;;;;;;;5.87;4.17;;;;;;;-0.02;63.69;98520.75;1640933;87;21309;-63
2021/04/10 00:45:22;;;;;;;4.90;3.60;;;;;;;-0.03;63.55;98525.91;1640840;87;21337;-62
2021/04/10 00:47:50;;;;;;;8.23;4.10;;;;;;;-0.05;62.65;98527.70;1640702;86;21167;-62
2021/04/10 00:50:19;;;;;;;3.92;3.10;;;;;;;-0.06;62.83;98524.32;1640995;87;22250;-63
2021/04/10 00:52:48;;;;;;;5.40;3.02;;;;;;;-0.08;62.64;98522.27;1640947;87;21611;-63
2021/04/10 00:55:16;;;;;;;7.25;3.90;;;;;;;-0.06;62.02;98520.49;1640302;87;21356;-63
2021/04/10 00:57:44;;;;;;;7.10;3.62;;;;;;;-0.07;62.73;98523.09;1640858;87;21183;-63
2021/04/10 01:00:13;;;;;;;6.15;3.92;;;;;;;-0.07;63.06;98524.38;1614664;87;21254;-62
2021/04/10 01:02:42;;;;;;;5.67;4.55;;;;;;;-0.11;62.70;98526.22;1614072;88;21210;-62
2021/04/10 01:05:12;;;;;;;9.35;5.17;;;;;;;-0.11;62.05;98520.28;1586883;89;21271;-62
2021/04/10 01:07:40;;;;;;;4.70;3.92;;;;;;;-0.11;61.71;98520.28;1614357;88;21598;-62
2021/04/10 01:10:31;;;;;;;7.92;4.92;;;;;;;-0.13;62.04;98520.37;1587209;89;21248;-62
2021/04/10 01:13:32;;;;;;;6.78;4.20;;;;;;;-0.13;62.25;98519.09;1619729;88;21199;-62
2021/04/10 01:16:05;;;;;;;4.95;3.17;;;;;;;-0.21;63.74;98521.13;1682320;85;21184;-62
2021/04/10 01:18:45;;;;;;;6.72;4.50;;;;;;;-0.21;63.74;98521.13;1663193;86;21216;-63
2021/04/10 01:21:28;;;;;;;4.05;3.02;;;;;;;-0.41;64.29;98515.16;1663256;86;21172;-62
2021/04/10 01:27:36;;;;;;;7.12;3.67;;;;;;;-0.42;63.91;98509.22;1579602;91;21219;-62
2021/04/10 01:30:40;;;;;;;3.65;3.33;;;;;;;-0.44;64.02;98518.67;1676872;85;21184;-62
2021/04/10 01:33:16;;;;;;;2.92;2.40;;;;;;;-0.47;64.26;98522.16;1656640;87;21179;-62
2021/04/10 01:35:49;;;;;;;4.60;3.20;;;;;;;-0.51;63.48;98521.89;1656625;86;21155;-62
2021/04/10 01:38:20;;;;;;;4.80;2.58;;;;;;;-0.51;62.92;98517.27;1638589;87;21162;-63
2021/04/10 01:40:53;;;;;;;5.40;3.42;;;;;;;-0.49;62.03;98516.74;1656717;87;21200;-62
2021/04/10 01:43:22;;;;;;;11.15;3.35;;;;;;;-0.56;64.26;98515.33;1656444;86;21196;-63
2021/04/10 01:45:53;;;;;;;4.33;3.55;;;;;;;-0.56;64.26;98515.33;1656461;87;21223;-63
2021/04/10 01:48:23;;;;;;;3.00;2.72;;;;;;;-0.56;64.02;98512.34;1638362;87;21186;-62
2021/04/10 01:50:54;;;;;;;6.35;3.72;;;;;;;-0.57;64.00;98519.60;1638572;87;21220;-63
2021/04/10 01:53:24;;;;;;;6.20;2.87;;;;;;;-0.58;64.75;98519.20;1656591;87;21187;-63
2021/04/10 01:55:54;;;;;;;5.37;3.40;;;;;;;-0.55;63.06;98515.73;1656403;86;21192;-62
2021/04/10 01:58:25;;;;;;;4.60;3.67;;;;;;;-0.55;62.17;98514.45;1656580;86;21532;-63
2021/04/10 02:00:54;;;;;;;4.35;2.83;;;;;;;-0.59;62.23;98502.70;1656509;86;21175;-62
2021/04/10 02:03:23;;;;;;;5.33;3.05;;;;;;;-0.54;63.00;98516.92;1656487;87;21175;-62
2021/04/10 02:05:54;;;;;;;3.08;2.55;;;;;;;-0.54;63.00;98516.92;1638239;87;21646;-61
2021/04/10 02:08:33;;;;;;;6.40;4.47;;;;;;;-0.56;62.44;98513.62;1655730;86;21183;-61
2021/04/10 02:11:05;;;;;;;6.62;3.67;;;;;;;-0.56;62.26;98514.89;1655843;86;21179;-62
2021/04/10 02:13:52;;;;;;;7.00;3.22;;;;;;;-0.62;63.66;98504.91;1656370;87;21637;-62
2021/04/10 02:16:23;;;;;;;5.33;3.45;;;;;;;-0.63;63.02;98505.83;1655949;86;21195;-63
2021/04/10 02:18:54;;;;;;;5.20;3.25;;;;;;;-0.65;62.70;98505.48;1656318;86;21647;-63
2021/04/10 02:21:27;;;;;;;6.58;3.75;;;;;;;-0.64;62.90;98510.53;1656473;87;21156;-64
2021/04/10 02:23:57;;;;;;;4.45;3.62;;;;;;;-0.65;63.09;98513.13;1656424;86;21204;-63
2021/04/10 02:26:33;;;;;;;6.17;4.12;;;;;;;-0.66;62.69;98514.85;1655603;86;21176;-62
2021/04/10 02:29:03;;;;;;;7.08;3.00;;;;;;;-0.69;63.42;98514.98;1656367;86;21188;-62
2021/04/10 02:34:28;;;;;;;4.60;3.05;;;;;;;-0.79;62.93;98507.75;1604383;88;21608;-63
2021/04/10 02:36:59;;;;;;;7.92;3.92;;;;;;;-0.84;63.66;98498.17;1604577;87;21168;-63
2021/04/10 02:39:30;;;;;;;8.18;2.75;;;;;;;-0.86;62.66;98500.80;1604106;88;21204;-64
2021/04/10 02:42:02;;;;;;;13.32;4.47;;;;;;;-0.86;62.66;98500.80;1604130;89;21184;-62
2021/04/10 02:44:35;;;;;;;3.72;2.83;;;;;;;-0.83;62.53;98499.84;1603860;88;21183;-64
2021/04/10 02:47:07;;;;;;;2.60;2.30;;;;;;;-0.85;63.02;98503.70;1603962;89;21612;-64
2021/04/10 02:49:40;;;;;;;3.25;2.77;;;;;;;-0.86;62.62;98497.41;1603711;88;21601;-63
2021/04/10 02:52:11;;;;;;;8.68;3.35;;;;;;;-0.87;62.68;98508.49;1598999;89;21814;-64
2021/04/10 02:54:44;;;;;;;3.22;2.85;;;;;;;-0.98;64.25;98502.54;1603895;88;21228;-63
2021/04/10 02:57:21;;;;;;;4.90;4.28;;;;;;;-0.98;64.25;98502.54;1603872;87;21287;-63
2021/04/10 02:59:52;;;;;;;7.95;3.20;;;;;;;-0.97;64.05;98499.91;1627111;87;21616;-64
2021/04/10 03:02:30;;;;;;;3.00;2.42;;;;;;;-1.02;63.50;98500.55;1604206;88;21200;-63
2021/04/10 03:05:00;;;;;;;4.10;2.55;;;;;;;-1.05;64.39;98507.02;1603925;89;21159;-63
2021/04/10 03:07:29;;;;;;;11.38;3.22;;;;;;;-1.17;65.64;98505.40;1604176;88;21732;-61
2021/04/10 03:09:57;;;;;;;3.37;2.42;;;;;;;-1.17;65.64;98505.40;1604004;89;21177;-61
2021/04/10 03:12:26;;;;;;;4.20;2.87;;;;;;;-1.18;64.05;98512.20;1603821;88;21156;-61
2021/04/10 03:14:56;;;;;;;4.10;2.55;;;;;;;-1.17;64.18;98511.77;1603851;89;21244;-61
2021/04/10 03:17:27;;;;;;;4.30;2.90;;;;;;;-1.14;64.09;98511.64;1604518;87;21228;-61
2021/04/10 03:19:58;;;;;;;4.67;2.50;;;;;;;-1.14;64.09;98511.64;1604580;87;21938;-61
2021/04/10 03:22:27;;;;;;;8.00;3.58;;;;;;;-1.13;63.74;98512.84;1604255;88;21195;-62
2021/04/10 03:24:56;;;;;;;3.08;2.65;;;;;;;-1.13;63.74;98512.84;1603896;89;21220;-64
2021/04/10 03:27:25;;;;;;;3.62;2.75;;;;;;;-1.13;63.96;98519.22;1603871;89;21561;-63
2021/04/10 03:29:54;;;;;;;3.65;3.12;;;;;;;-1.18;64.13;98519.85;1603738;88;21897;-62
2021/04/10 03:32:27;;;;;;;3.98;3.45;;;;;;;-1.21;64.22;98528.89;1604582;87;21164;-63
2021/04/10 03:34:56;;;;;;;5.87;2.92;;;;;;;-1.21;64.22;98528.89;1626456;87;21175;-62
2021/04/10 03:37:27;;;;;;;3.05;2.85;;;;;;;-1.21;64.06;98522.96;1602738;88;21206;-61
2021/04/10 03:39:56;;;;;;;4.03;2.45;;;;;;;-1.24;64.86;98527.70;1626329;87;21697;-62
2021/04/10 03:42:41;;;;;;;3.30;2.95;;;;;;;-1.29;64.69;98519.42;1610693;89;21256;-62
2021/04/10 03:45:13;;;;;;;4.37;3.35;;;;;;;-1.29;64.83;98524.52;1626498;87;21175;-63
2021/04/10 03:47:44;;;;;;;5.00;3.47;;;;;;;-1.31;64.75;98530.53;1606633;87;21615;-62
2021/04/10 03:50:14;;;;;;;4.28;3.47;;;;;;;-1.33;64.78;98528.06;1610595;88;21163;-63
2021/04/10 03:52:43;;;;;;;6.95;3.22;;;;;;;-1.30;64.35;98534.31;1610656;88;21190;-63
2021/04/10 03:55:13;;;;;;;7.00;4.47;;;;;;;-1.28;64.70;98538.06;1610748;88;21274;-63
2021/04/10 03:57:41;;;;;;;4.28;2.80;;;;;;;-1.29;64.57;98535.98;1610870;89;21253;-63
2021/04/10 04:00:31;;;;;;;4.45;3.10;;;;;;;-1.34;65.22;98534.04;1610934;88;21409;-63
2021/04/10 04:03:00;;;;;;;4.90;2.90;;;;;;;-1.36;65.35;98536.27;1604282;88;21204;-65
2021/04/10 04:05:28;;;;;;;6.45;2.67;;;;;;;-1.38;65.68;98536.74;1626627;88;21223;-63
2021/04/10 04:07:56;;;;;;;6.85;3.65;;;;;;;-1.36;65.34;98538.81;1626541;88;21181;-63
2021/04/10 04:10:25;;;;;;;4.58;3.27;;;;;;;-1.34;65.13;98533.20;1626636;87;21176;-63
2021/04/10 04:12:53;;;;;;;5.62;3.05;;;;;;;-1.29;64.71;98536.42;1626509;88;21180;-63
2021/04/10 04:15:21;;;;;;;4.17;2.00;;;;;;;-1.22;65.49;98546.77;1626400;87;21251;-63
2021/04/10 04:17:50;;;;;;;2.50;2.05;;;;;;;-1.27;64.64;98538.02;1626420;87;21176;-63
2021/04/10 04:20:18;;;;;;;4.30;2.75;;;;;;;-1.27;64.64;98538.02;1626358;88;21164;-62
2021/04/10 04:22:46;;;;;;;4.10;3.00;;;;;;;-1.15;64.28;98543.94;1626440;87;21171;-64
2021/04/10 04:25:14;;;;;;;4.03;2.55;;;;;;;-1.08;64.04;98539.00;1626472;88;21183;-63
2021/04/10 04:27:42;;;;;;;7.20;3.52;;;;;;;-1.01;64.04;98539.59;1626357;88;21220;-62
2021/04/10 04:30:32;;;;;;;4.70;2.30;;;;;;;-0.94;63.86;98543.59;1626439;87;21176;-62
2021/04/10 04:33:01;;;;;;;3.72;3.40;;;;;;;-0.88;63.75;98550.17;1686208;85;21181;-62
2021/04/10 04:35:29;;;;;;;6.95;4.25;;;;;;;-0.83;63.45;98540.63;1686362;85;21114;-63
2021/04/10 04:37:58;;;;;;;6.20;3.52;;;;;;;-0.74;63.89;98539.02;1686142;85;21201;-63
2021/04/10 04:40:26;;;;;;;4.47;3.60;;;;;;;-0.65;63.41;98548.41;1686130;85;21160;-62
2021/04/10 04:42:54;;;;;;;4.15;2.65;;;;;;;-0.65;63.41;98548.41;1686405;84;21534;-63
2021/04/10 04:45:24;;;;;;;5.53;3.25;;;;;;;-0.51;63.35;98547.88;1686316;85;21157;-63
2021/04/10 04:47:52;;;;;;;4.75;3.10;;;;;;;-0.51;63.35;98547.88;1686095;85;21137;-62
2021/04/10 04:50:20;;;;;;;4.70;2.35;;;;;;;-0.43;63.38;98550.12;1686163;85;21173;-63
2021/04/10 04:52:48;;;;;;;2.25;2.05;;;;;;;-0.39;63.44;98546.56;1686107;85;21287;-63
2021/04/10 04:55:16;;;;;;;3.65;2.87;;;;;;;-0.36;63.58;98546.00;1686135;85;21160;-63
2021/04/10 04:57:44;;;;;;;5.17;3.65;;;;;;;-0.36;63.58;98546.00;1686433;84;21558;-62
2021/04/10 05:00:35;;;;;;;3.30;2.05;;;;;;;-0.37;63.61;98547.31;1686412;85;21578;-63
2021/04/10 05:03:04;;;;;;;4.50;2.70;;;;;;;-0.29;63.30;98561.44;1721165;83;21574;-63
2021/04/10 05:05:35;;;;;;;5.35;2.90;;;;;;;-0.22;63.01;98552.64;1721502;83;21192;-64
2021/04/10 05:08:04;;;;;;;2.87;2.58;;;;;;;-0.18;63.80;98552.91;1721680;83;21590;-63
2021/04/10 05:10:35;;;;;;;5.92;2.67;;;;;;;-0.15;64.07;98551.94;1721009;83;21523;-63
2021/04/10 05:13:03;;;;;;;7.25;3.90;;;;;;;-0.12;64.22;98555.66;1721214;83;21598;-64
2021/04/10 05:15:31;;;;;;;5.12;3.37;;;;;;;-0.06;63.83;98549.02;1724883;82;21562;-63
2021/04/10 05:17:59;;;;;;;5.75;2.98;;;;;;;0.05;63.33;98521.31;1710249;83;21233;-63
2021/04/10 05:20:27;;;;;;;3.08;2.52;;;;;;;0.13;63.07;98534.59;1710181;84;21201;-63
2021/04/10 05:22:56;;;;;;;7.53;3.22;;;;;;;0.26;62.66;98545.96;1710208;83;21165;-62
2021/04/10 05:25:24;;;;;;;6.78;3.87;;;;;;;0.40;62.27;98547.47;1710194;84;21194;-63
2021/04/10 05:28:15;;;;;;;5.80;3.17;;;;;;;0.57;61.56;98544.64;1710059;83;21198;-63
2021/04/10 05:30:43;;;;;;;4.10;3.67;;;;;;;0.71;61.87;98548.24;1699106;84;21594;-63
2021/04/10 05:33:11;;;;;;;6.50;3.27;;;;;;;0.84;62.08;98560.05;1699311;84;21187;-62
2021/04/10 05:35:39;;;;;;;7.00;3.62;;;;;;;0.94;61.68;98550.60;1699166;84;21172;-62
2021/04/10 05:38:07;;;;;;;6.25;4.75;;;;;;;1.01;61.72;98550.34;1698976;84;21183;-62
2021/04/10 05:40:35;;;;;;;9.03;4.53;;;;;;;1.12;61.28;98550.23;1699103;84;21640;-62
2021/04/10 05:43:03;;;;;;;7.85;4.58;;;;;;;1.17;61.43;98550.83;1698920;84;21160;-68
2021/04/10 05:45:31;;;;;;;6.50;4.05;;;;;;;1.31;61.16;98546.38;1699065;84;21394;-63
2021/04/10 05:47:59;;;;;;;13.48;4.72;;;;;;;1.40;61.52;98548.04;1699070;84;21711;-62
2021/04/10 05:50:27;;;;;;;7.08;4.33;;;;;;;1.57;60.89;98548.98;1677606;84;21153;-63
2021/04/10 05:52:55;;;;;;;9.35;5.40;;;;;;;1.67;61.46;98551.05;1698980;84;21176;-63
2021/04/10 05:55:24;;;;;;;15.08;5.58;;;;;;;1.67;61.79;98554.89;1699047;84;21176;-64
2021/04/10 05:57:52;;;;;;;7.80;4.95;;;;;;;1.87;60.93;98553.91;1699160;84;21213;-63
2021/04/10 06:03:20;;;;;;;6.50;4.55;;;;;;;2.17;60.07;98546.46;1684629;85;21363;-63
2021/04/10 06:05:49;;;;;;;6.53;3.87;;;;;;;2.27;59.20;98544.63;1639470;87;21175;-62
2021/04/10 06:08:17;;;;;;;7.15;3.20;;;;;;;2.37;58.04;98551.42;1639402;87;21251;-63
2021/04/10 06:10:45;;;;;;;6.22;4.53;;;;;;;2.43;58.17;98547.70;1684455;84;21169;-63
2021/04/10 06:13:14;;;;;;;7.80;3.80;;;;;;;2.40;58.12;98555.10;1639531;87;21186;-62
2021/04/10 06:15:42;;;;;;;8.45;4.78;;;;;;;2.32;58.43;98559.34;1684564;85;21319;-63
2021/04/10 06:18:12;;;;;;;6.45;3.98;;;;;;;2.29;59.00;98549.70;1639686;87;21310;-62
2021/04/10 06:20:40;;;;;;;7.35;4.42;;;;;;;2.46;58.63;98556.51;1639691;87;21333;-62
2021/04/10 06:23:08;;;;;;;8.40;4.40;;;;;;;2.66;57.66;98545.62;1684642;85;21725;-62
2021/04/10 06:25:36;;;;;;;9.93;5.30;;;;;;;2.88;57.31;98538.89;1687062;84;21571;-62
2021/04/10 06:28:05;;;;;;;9.70;5.67;;;;;;;3.23;60.75;98539.61;1639607;87;21306;-62
2021/04/10 06:30:34;;;;;;;10.88;5.53;;;;;;;3.43;59.01;98544.45;1639435;87;21628;-63
2021/04/10 06:33:03;;;;;;;8.75;6.70;;;;;;;3.48;56.72;98532.66;1684720;85;21724;-63
2021/04/10 06:35:31;;;;;;;10.95;5.90;;;;;;;3.54;56.48;98533.12;1640104;87;21578;-63
2021/04/10 06:37:59;;;;;;;17.15;9.05;;;;;;;3.61;54.74;98533.64;1640266;87;21179;-64
2021/04/10 06:40:29;;;;;;;17.20;8.78;;;;;;;3.69;54.57;98532.75;1684709;85;21370;-63
2021/04/10 06:43:04;;;;;;;15.10;5.60;;;;;;;3.79;54.38;98533.88;1638785;86;21602;-62
2021/04/10 06:45:32;;;;;;;11.40;5.67;;;;;;;3.57;54.30;98534.72;1662309;86;21156;-62
2021/04/10 06:48:04;;;;;;;9.45;4.75;;;;;;;3.77;53.95;98540.86;1661908;86;21137;-61
2021/04/10 06:50:32;;;;;;;11.53;5.10;;;;;;;3.97;53.95;98537.16;1684780;85;21731;-63
2021/04/10 06:53:03;;;;;;;5.78;3.67;;;;;;;4.13;53.28;98533.59;1639519;87;21195;-63
2021/04/10 06:55:35;;;;;;;8.98;3.58;;;;;;;4.24;52.89;98536.37;1639860;87;21379;-62
2021/04/10 06:58:06;;;;;;;6.08;3.47;;;;;;;4.39;52.18;98531.27;1684658;85;21229;-63
2021/04/10 07:00:55;;;;;;;5.85;3.35;;;;;;;4.43;51.67;98537.43;1639589;87;21592;-63
2021/04/10 07:03:25;;;;;;;14.25;3.50;;;;;;;4.52;51.28;98534.74;1676656;85;21237;-64
2021/04/10 07:05:54;;;;;;;6.20;3.42;;;;;;;4.69;51.03;98541.01;1698727;84;21629;-62
2021/04/10 07:08:23;;;;;;;5.85;3.80;;;;;;;4.93;51.18;98539.53;1699196;84;21171;-62
2021/04/10 07:10:51;;;;;;;6.72;3.22;;;;;;;4.96;49.46;98538.05;1698573;84;21194;-62
2021/04/10 07:13:19;;;;;;;5.00;3.40;;;;;;;5.15;48.92;98542.89;1698750;84;21619;-63
2021/04/10 07:15:47;;;;;;;6.67;3.77;;;;;;;5.33;49.14;98531.44;1698619;84;21147;-62
2021/04/10 07:18:17;;;;;;;6.67;3.72;;;;;;;5.40;49.04;98534.47;1698736;84;21627;-63
2021/04/10 07:20:44;;;;;;;7.30;3.45;;;;;;;5.49;47.60;98532.58;1698866;83;21124;-62
2021/04/10 07:23:29;;;;;;;4.67;3.85;;;;;;;5.53;47.80;98531.01;1706028;83;21178;-63
2021/04/10 07:25:57;;;;;;;6.05;3.25;;;;;;;5.63;48.18;98529.52;1741495;82;21226;-63
2021/04/10 07:28:33;;;;;;;5.90;3.58;;;;;;;5.69;48.67;98536.84;1742258;82;21169;-62
2021/04/10 07:31:07;;;;;;;4.33;3.40;;;;;;;5.91;48.35;98529.89;1741965;82;21190;-62
2021/04/10 07:33:38;;;;;;;8.95;3.98;;;;;;;6.04;48.45;98529.43;1741367;81;21157;-63
2021/04/10 07:38:59;;;;;;;6.22;3.60;;;;;;;6.28;48.82;98531.31;1634295;86;21152;-62
2021/04/10 07:41:28;;;;;;;6.85;4.10;;;;;;;6.60;48.60;98524.36;1607382;89;21188;-62
2021/04/10 07:43:58;;;;;;;8.28;4.08;;;;;;;6.81;47.73;98520.76;1634677;88;21163;-63
2021/04/10 07:46:42;;;;;;;6.25;4.17;;;;;;;7.00;47.79;98514.67;1691049;85;21164;-65
2021/04/10 07:49:13;;;;;;;7.15;5.03;;;;;;;7.21;47.28;98520.11;1661677;86;21196;-62
2021/04/10 07:52:15;;;;;;;7.33;3.33;;;;;;;7.21;47.23;98513.65;1691081;85;21643;-67
2021/04/10 07:54:43;;;;;;;9.30;3.62;;;;;;;7.34;47.17;98514.45;1655671;85;21210;-63
2021/04/10 07:57:11;;;;;;;6.60;3.85;;;;;;;7.62;46.77;98512.00;1655734;86;21191;-63
2021/04/10 07:59:52;;;;;;;5.90;3.75;;;;;;;7.79;46.24;98507.70;1655851;86;21207;-64
2021/04/10 08:02:22;;;;;;;4.97;2.75;;;;;;;7.98;46.12;98509.76;1655700;86;21180;-63
2021/04/10 08:05:03;;;;;;;7.25;3.40;;;;;;;8.22;46.33;98514.87;1655666;86;21313;-63
2021/04/10 08:07:33;;;;;;;3.85;2.50;;;;;;;8.43;45.19;98507.67;1655881;85;21258;-63
2021/04/10 08:10:08;;;;;;;7.05;3.65;;;;;;;8.67;45.43;98506.75;1655650;86;21137;-63
2021/04/10 08:12:39;;;;;;;6.72;3.35;;;;;;;8.83;44.07;98507.22;1655454;85;21192;-64
2021/04/10 08:15:10;;;;;;;6.83;3.37;;;;;;;8.98;43.28;98508.63;1655969;85;21179;-64
2021/04/10 08:17:43;;;;;;;6.60;3.22;;;;;;;9.11;42.63;98505.41;1662515;86;21216;-64
2021/04/10 08:20:26;;;;;;;3.37;2.37;;;;;;;9.34;42.52;98498.41;1678990;85;21160;-63
2021/04/10 08:23:19;;;;;;;7.97;2.40;;;;;;;9.53;40.46;98499.91;1656564;87;21208;-64
2021/04/10 08:25:48;;;;;;;5.40;2.30;;;;;;;9.74;40.76;98489.55;1656662;87;21523;-65
2021/04/10 08:28:18;;;;;;;3.08;2.17;;;;;;;9.97;39.40;98491.09;1654533;87;21629;-60
2021/04/10 08:30:48;;;;;;;3.15;2.10;;;;;;;10.16;39.55;98485.23;1653563;86;21205;-63
2021/04/10 08:33:16;;;;;;;5.50;2.52;;;;;;;10.24;37.97;98486.25;1654648;87;21616;-62
2021/04/10 08:35:45;;;;;;;3.40;1.98;;;;;;;10.35;37.49;98482.78;1654534;87;21208;-63
2021/04/10 08:38:14;;;;;;;3.75;2.85;;;;;;;10.47;37.60;98486.91;1655123;87;21138;-61
2021/04/10 08:40:42;;;;;;;5.92;2.72;;;;;;;10.59;37.58;98481.98;1655463;87;21220;-63
2021/04/10 08:43:12;;;;;;;12.30;4.05;;;;;;;10.64;36.62;98473.34;1654744;87;21181;-64
2021/04/10 08:45:40;;;;;;;4.72;2.00;;;;;;;10.80;36.41;98482.77;1654703;87;21212;-64
2021/04/10 08:48:10;;;;;;;4.40;2.12;;;;;;;10.90;36.10;98474.52;1654785;87;21164;-63
2021/04/10 08:50:40;;;;;;;3.15;2.27;;;;;;;11.12;36.57;98471.38;1654689;87;21196;-63
2021/04/10 08:53:21;;;;;;;2.58;2.00;;;;;;;11.19;35.58;98465.98;1656694;86;21151;-63
2021/04/10 08:55:52;;;;;;;4.97;2.60;;;;;;;11.40;36.21;98464.08;1662445;86;21156;-63
2021/04/10 08:58:28;;;;;;;3.58;2.00;;;;;;;11.59;35.58;98461.52;1662553;86;21221;-63
2021/04/10 09:00:59;;;;;;;3.62;2.55;;;;;;;11.80;35.22;98459.60;1711313;82;21164;-63
2021/04/10 09:03:50;;;;;;;6.72;2.40;;;;;;;11.90;34.52;98459.10;1710865;84;21627;-63
2021/04/10 09:06:33;;;;;;;4.28;2.67;;;;;;;12.00;34.42;98460.87;1711228;84;21152;-63
2021/04/10 09:09:25;;;;;;;6.60;2.52;;;;;;;12.23;34.25;98455.22;1711125;82;21568;-63
2021/04/10 09:12:26;;;;;;;5.03;2.55;;;;;;;12.47;34.90;98453.44;1685612;84;21168;-63
2021/04/10 09:15:09;;;;;;;3.85;2.27;;;;;;;12.70;33.64;98448.67;1626877;87;21198;-64
2021/04/10 09:18:19;;;;;;;3.33;2.60;;;;;;;13.11;33.36;98448.20;1629729;86;21634;-63
2021/04/10 09:20:49;;;;;;;3.85;2.27;;;;;;;13.38;32.62;98435.62;1635290;87;21152;-64
2021/04/10 09:23:36;;;;;;;5.15;2.85;;;;;;;13.87;32.67;98436.85;1677041;85;21201;-64
2021/04/10 09:26:18;;;;;;;7.10;3.17;;;;;;;13.98;31.04;98429.25;1677724;85;21193;-64
2021/04/10 09:29:15;;;;;;;4.55;2.95;;;;;;;14.08;30.45;98429.52;1634716;86;21239;-65
2021/04/10 09:32:01;;;;;;;8.15;4.00;;;;;;;14.38;29.74;98424.32;1635169;87;21182;-68
2021/04/10 09:34:50;;;;;;;;;;;;;;;14.76;29.68;98427.42;1637475;87;21177;-65
2021/04/10 09:37:27;;;;;;;5.33;3.22;;;;;;;15.08;29.08;98415.77;1627446;88;20222;-66
2021/04/10 09:40:03;;;;;;;4.47;2.40;;;;;;;14.86;28.61;98413.75;1634771;87;21209;-65
2021/04/10 09:45:30;;;;;;;5.75;3.08;;;;;;;15.62;26.98;98409.98;1681078;85;21240;-66
2021/04/10 09:48:11;;;;;;;5.62;2.87;;;;;;;15.67;26.70;98408.19;1635024;87;21211;-65
2021/04/10 09:50:54;;;;;;;5.35;2.87;;;;;;;16.12;26.35;98413.70;1680776;85;21277;-65
2021/04/10 09:53:29;;;;;;;3.25;2.72;;;;;;;16.15;25.45;98409.92;1635222;86;21252;-65
2021/04/10 09:56:03;;;;;;;7.58;2.52;;;;;;;16.48;24.80;98399.70;1634748;86;21720;-65
2021/04/10 10:01:52;;;;;;;3.80;2.45;;;;;;;17.40;23.67;98396.77;1615423;87;21157;-66
2021/04/10 10:04:21;;;;;;;3.33;2.55;;;;;;;17.53;23.47;98395.20;1647122;86;21616;-64
2021/04/10 10:06:52;;;;;;;6.42;2.83;;;;;;;17.97;23.22;98384.84;1647447;86;21188;-65
2021/04/10 10:09:29;;;;;;;7.75;2.40;;;;;;;17.99;22.81;98369.70;1647054;86;21208;-65
2021/04/10 10:11:58;;;;;;;3.35;2.45;;;;;;;18.12;24.20;98374.34;1647458;87;21779;-64
2021/04/10 10:14:26;;;;;;;5.35;2.72;;;;;;;18.24;22.03;98374.22;1648342;86;21164;-64
2021/04/10 10:16:54;;;;;;;3.65;2.75;;;;;;;18.26;22.37;98366.12;1648261;86;21207;-65
2021/04/10 10:19:22;;;;;;;4.03;2.58;;;;;;;18.38;22.03;98363.36;1648354;87;21597;-64
2021/04/10 10:21:50;;;;;;;4.67;2.95;;;;;;;18.34;21.85;98366.04;1648249;87;21180;-65
2021/04/10 10:24:21;;;;;;;3.47;2.22;;;;;;;18.37;22.27;98367.80;1648357;87;21310;-64
2021/04/10 10:26:49;;;;;;;3.72;2.10;;;;;;;18.42;21.59;98359.38;1648258;86;21168;-64
2021/04/10 10:29:18;;;;;;;4.80;2.17;;;;;;;18.44;22.18;98360.02;1648550;87;21196;-64
2021/04/10 10:31:56;;;;;;;5.25;2.50;;;;;;;18.49;22.13;98362.41;1648810;86;21178;-64
2021/04/10 10:34:27;;;;;;;3.05;2.20;;;;;;;18.92;21.41;98365.98;1648340;86;21373;-64
2021/04/10 10:36:55;;;;;;;3.83;2.40;;;;;;;18.85;20.89;98345.87;1648430;86;21274;-64
2021/04/10 10:39:35;;;;;;;5.75;3.05;;;;;;;19.07;21.29;98354.59;1648386;86;21212;-63
2021/04/10 10:42:26;;;;;;;3.22;2.60;;;;;;;18.77;21.01;98349.92;1648353;86;21640;-65
2021/04/10 10:44:54;;;;;;;3.80;2.37;;;;;;;18.73;21.16;98350.80;1627133;87;21179;-64
2021/04/10 10:47:26;;;;;;;4.50;2.52;;;;;;;19.40;21.15;98346.03;1657528;85;21175;-65
2021/04/10 10:49:54;;;;;;;5.33;2.17;;;;;;;19.11;20.80;98340.05;1657361;85;21193;-64
2021/04/10 10:52:22;;;;;;;4.15;2.70;;;;;;;19.70;20.23;98337.48;1657366;85;21158;-64
2021/04/10 10:54:50;;;;;;;3.95;1.98;;;;;;;19.51;20.66;98335.51;1657284;85;21259;-64
2021/04/10 10:57:20;;;;;;;4.25;2.27;;;;;;;20.12;20.66;98328.63;1657216;85;21186;-64
2021/04/10 10:59:50;;;;;;;5.30;2.25;;;;;;;20.14;20.76;98321.36;1656568;85;21367;-64
2021/04/10 11:02:20;;;;;;;3.33;2.10;;;;;;;19.47;20.53;98311.87;1657147;85;21324;-64
2021/04/10 11:04:49;;;;;;;7.70;2.50;;;;;;;19.51;20.48;98327.61;1657251;85;21169;-63
2021/04/10 11:07:24;;;;;;;3.47;2.45;;;;;;;19.80;20.08;98331.89;1657338;85;21610;-64
2021/04/10 11:09:54;;;;;;;5.07;2.67;;;;;;;20.19;19.57;98324.20;1657568;85;21170;-64
2021/04/10 11:12:24;;;;;;;2.98;2.30;;;;;;;20.16;19.78;98321.97;1657280;85;21899;-64
2021/04/10 11:14:58;;;;;;;3.55;2.42;;;;;;;20.40;19.52;98310.65;1657335;85;21213;-65
2021/04/10 11:17:31;;;;;;;9.23;3.37;;;;;;;20.18;19.23;98322.60;1657352;85;21607;-65
2021/04/10 11:20:01;;;;;;;4.53;2.25;;;;;;;19.65;19.75;98309.56;1657250;85;21205;-65
2021/04/10 11:22:30;;;;;;;3.62;2.22;;;;;;;20.71;19.20;98307.83;1657296;85;21174;-63
2021/04/10 11:25:02;;;;;;;4.65;2.30;;;;;;;20.72;19.06;98309.47;1657428;85;21168;-65
2021/04/10 11:27:35;;;;;;;3.27;2.40;;;;;;;20.79;19.02;98309.48;1657330;85;21189;-64
2021/04/10 11:30:11;;;;;;;5.42;3.08;;;;;;;21.23;18.96;98306.34;1657069;85;21595;-64
2021/04/10 11:32:44;;;;;;;2.80;2.15;;;;;;;20.78;19.13;98288.86;1657303;85;21178;-64
2021/04/10 11:35:23;;;;;;;3.05;2.15;;;;;;;21.12;18.62;98306.45;1657255;85;21190;-64
2021/04/10 11:37:54;;;;;;;4.35;3.17;;;;;;;21.62;17.80;98297.62;1657492;85;21218;-62
2021/04/10 11:40:32;;;;;;;4.75;2.33;;;;;;;21.77;18.92;98288.45;1657120;85;21249;-63
2021/04/10 11:43:07;;;;;;;4.97;2.62;;;;;;;21.89;18.08;98294.42;1663562;83;21170;-63
2021/04/10 11:48:40;;;;;;;3.10;2.20;;;;;;;21.01;18.15;98287.18;1710127;80;21604;-63
2021/04/10 11:51:09;;;;;;;2.70;2.12;;;;;;;20.57;18.97;98284.24;1719025;82;21582;-64
2021/04/10 11:53:38;;;;;;;4.97;2.27;;;;;;;21.68;17.98;98273.81;1719013;82;21115;-64
2021/04/10 11:56:34;;;;;;;3.92;2.12;;;;;;;22.58;17.85;98268.16;1719203;82;21282;-64
2021/04/10 11:59:09;;;;;;;3.10;2.10;;;;;;;22.40;17.32;98265.41;1718936;82;21155;-64
2021/04/10 12:01:51;;;;;;;5.83;2.75;;;;;;;21.85;17.52;98269.41;1719070;82;21595;-64
2021/04/10 12:04:26;;;;;;;3.50;1.75;;;;;;;21.35;18.11;98272.22;1718948;82;21156;-63
2021/04/10 12:07:07;;;;;;;;;;;;;;;22.93;17.61;98259.33;1721642;82;21374;-64
2021/04/10 12:09:38;;;;;;;5.90;2.47;;;;;;;23.47;16.47;98259.55;1700975;82;20151;-64
2021/04/10 12:12:11;;;;;;;3.77;2.60;;;;;;;23.53;15.94;98260.53;1718966;82;21151;-64
2021/04/10 12:14:39;;;;;;;4.58;2.80;;;;;;;24.13;15.51;98257.04;1719220;82;21151;-64
2021/04/10 12:17:13;;;;;;;3.98;2.85;;;;;;;23.24;15.89;98251.88;1719110;82;21572;-64
2021/04/10 12:19:41;;;;;;;5.58;2.58;;;;;;;23.40;16.02;98256.13;1719463;82;21608;-64
2021/04/10 12:22:10;;;;;;;6.08;2.25;;;;;;;23.39;16.11;98256.33;1719587;82;21155;-65